Time,TemperatureF,DewpointF,PressureIn,WindDirection,WindDirectionDegrees,WindSpeedMPH,WindSpeedGustMPH,Humidity,HourlyPrecipIn,Conditions,Clouds,dailyrainin,SoftwareType,DateUTC
2013-06-02 00:01:00,45.0,29.0,30.03,SE,131,1.0,2.0,54,0.00,,,0.00,,2013-06-02 06:01:00,
2013-06-02 00:12:00,44.0,28.0,30.04,SE,131,1.0,2.0,54,0.00,,,0.00,,2013-06-02 06:12:00,
2013-06-02 00:21:00,44.0,28.0,30.04,SE,131,1.0,2.0,54,0.00,,,0.00,,2013-06-02 06:21:00,
2013-06-02 00:32:00,42.0,28.0,30.05,WSW,238,0.0,2.0,58,0.00,,,0.00,,2013-06-02 06:32:00,
2013-06-02 00:42:00,42.0,28.0,30.05,WSW,238,0.0,2.0,58,0.00,,,0.00,,2013-06-02 06:42:00,
2013-06-02 00:52:00,41.0,28.0,30.05,WSW,241,1.0,3.0,60,0.00,,,0.00,,2013-06-02 06:52:00,
2013-06-02 01:01:00,39.0,27.0,30.06,NW,323,1.0,3.0,63,0.00,,,0.00,,2013-06-02 07:01:00,
2013-06-02 01:11:00,39.0,27.0,30.06,NW,323,1.0,3.0,63,0.00,,,0.00,,2013-06-02 07:11:00,
2013-06-02 01:21:00,38.0,27.0,30.07,NW,324,0.0,2.0,65,0.00,,,0.00,,2013-06-02 07:21:00,
2013-06-02 01:31:00,37.0,27.0,30.08,NW,324,0.0,0.0,68,0.00,,,0.00,,2013-06-02 07:31:00,
2013-06-02 01:42:00,36.0,27.0,30.08,NW,324,0.0,0.0,69,0.00,,,0.00,,2013-06-02 07:42:00,
2013-06-02 01:52:00,36.0,27.0,30.08,NW,324,0.0,0.0,69,0.00,,,0.00,,2013-06-02 07:52:00,
2013-06-02 02:01:00,36.0,27.0,30.09,NW,324,0.0,0.0,69,0.00,,,0.00,,2013-06-02 08:01:00,
2013-06-02 02:11:00,36.0,27.0,30.09,NW,324,0.0,0.0,69,0.00,,,0.00,,2013-06-02 08:11:00,
2013-06-02 02:21:00,35.0,26.0,30.09,NW,324,0.0,0.0,70,0.00,,,0.00,,2013-06-02 08:21:00,
2013-06-02 02:32:00,34.0,26.0,30.09,NW,324,0.0,1.0,72,0.00,,,0.00,,2013-06-02 08:32:00,
2013-06-02 02:41:00,34.0,26.0,30.10,NW,324,0.0,2.0,73,0.00,,,0.00,,2013-06-02 08:41:00,
2013-06-02 02:52:00,34.0,26.0,30.10,NW,324,0.0,2.0,73,0.00,,,0.00,,2013-06-02 08:52:00,
2013-06-02 03:01:00,33.0,26.0,30.09,NW,324,0.0,2.0,75,0.00,,,0.00,,2013-06-02 09:01:00,
2013-06-02 03:11:00,33.0,26.0,30.09,NW,324,0.0,2.0,75,0.00,,,0.00,,2013-06-02 09:11:00,
2013-06-02 03:21:00,33.0,26.0,30.08,NW,324,1.0,2.0,76,0.00,,,0.00,,2013-06-02 09:21:00,
2013-06-02 03:33:00,32.0,26.0,30.09,NW,324,0.0,2.0,78,0.00,,,0.00,,2013-06-02 09:33:00,
2013-06-02 03:42:00,32.0,26.0,30.09,NW,324,0.0,2.0,78,0.00,,,0.00,,2013-06-02 09:42:00,
2013-06-02 03:53:00,31.0,25.0,30.09,NW,324,0.0,2.0,78,0.00,,,0.00,,2013-06-02 09:53:00,
2013-06-02 04:02:00,31.0,25.0,30.10,NW,324,1.0,2.0,79,0.00,,,0.00,,2013-06-02 10:02:00,
2013-06-02 04:12:00,31.0,25.0,30.10,NW,324,1.0,2.0,79,0.00,,,0.00,,2013-06-02 10:12:00,
2013-06-02 04:22:00,30.0,25.0,30.10,NW,324,1.0,3.0,80,0.00,,,0.00,,2013-06-02 10:22:00,
2013-06-02 04:32:00,30.0,25.0,30.10,NW,324,0.0,1.0,81,0.00,,,0.00,,2013-06-02 10:32:00,
2013-06-02 04:42:00,30.0,25.0,30.10,NW,324,0.0,1.0,81,0.00,,,0.00,,2013-06-02 10:42:00,
2013-06-02 04:52:00,30.0,25.0,30.11,NW,324,0.0,0.0,82,0.00,,,0.00,,2013-06-02 10:52:00,
2013-06-02 05:02:00,30.0,25.0,30.10,NW,324,1.0,2.0,83,0.00,,,0.00,,2013-06-02 11:02:00,
2013-06-02 05:12:00,30.0,25.0,30.10,NW,324,1.0,2.0,83,0.00,,,0.00,,2013-06-02 11:12:00,
2013-06-02 05:21:00,29.0,25.0,30.10,NW,324,0.0,2.0,83,0.00,,,0.00,,2013-06-02 11:21:00,
2013-06-02 05:32:00,29.0,25.0,30.09,NW,324,0.0,2.0,84,0.00,,,0.00,,2013-06-02 11:32:00,
2013-06-02 05:42:00,29.0,25.0,30.09,NW,324,0.0,2.0,84,0.00,,,0.00,,2013-06-02 11:42:00,
2013-06-02 05:52:00,29.0,25.0,30.09,NW,324,0.0,0.0,84,0.00,,,0.00,,2013-06-02 11:52:00,
2013-06-02 06:01:00,29.0,25.0,30.09,NW,324,0.0,2.0,84,0.00,,,0.00,,2013-06-02 12:01:00,
2013-06-02 06:11:00,29.0,25.0,30.09,NW,324,0.0,2.0,84,0.00,,,0.00,,2013-06-02 12:11:00,
2013-06-02 06:21:00,29.0,25.0,30.08,NW,324,1.0,3.0,84,0.00,,,0.00,,2013-06-02 12:21:00,
2013-06-02 06:32:00,29.0,25.0,30.08,NW,324,0.0,2.0,86,0.00,,,0.00,,2013-06-02 12:32:00,
2013-06-02 06:42:00,29.0,25.0,30.08,NW,324,0.0,2.0,86,0.00,,,0.00,,2013-06-02 12:42:00,
2013-06-02 06:52:00,31.0,27.0,30.08,NW,324,0.0,0.0,85,0.00,,,0.00,,2013-06-02 12:52:00,
2013-06-02 07:01:00,35.0,29.0,30.03,NNW,344,0.0,2.0,77,0.00,,,0.00,,2013-06-02 13:01:00,
2013-06-02 07:11:00,35.0,29.0,30.03,NNW,344,0.0,2.0,77,0.00,,,0.00,,2013-06-02 13:11:00,
2013-06-02 07:21:00,37.0,29.0,30.02,NNE,14,1.0,2.0,74,0.00,,,0.00,,2013-06-02 13:21:00,
2013-06-02 07:32:00,40.0,30.0,29.99,NE,49,0.0,2.0,66,0.00,,,0.00,,2013-06-02 13:32:00,
2013-06-02 07:42:00,40.0,30.0,29.99,NE,49,0.0,2.0,66,0.00,,,0.00,,2013-06-02 13:42:00,
2013-06-02 07:52:00,41.0,30.0,30.00,NE,49,0.0,2.0,64,0.00,,,0.00,,2013-06-02 13:52:00,
2013-06-02 08:02:00,44.0,30.0,29.98,NE,53,0.0,2.0,58,0.00,,,0.00,,2013-06-02 14:02:00,
2013-06-02 08:11:00,44.0,30.0,29.98,NE,53,0.0,2.0,58,0.00,,,0.00,,2013-06-02 14:11:00,
2013-06-02 08:21:00,45.0,30.0,29.96,NE,55,0.0,2.0,56,0.00,,,0.00,,2013-06-02 14:21:00,
2013-06-02 08:32:00,47.0,30.0,29.95,SE,139,0.0,2.0,51,0.00,,,0.00,,2013-06-02 14:32:00,
2013-06-02 08:42:00,47.0,30.0,29.95,SE,139,0.0,2.0,51,0.00,,,0.00,,2013-06-02 14:42:00,
2013-06-02 08:52:00,49.0,31.0,29.96,SE,138,1.0,2.0,49,0.00,,,0.00,,2013-06-02 14:52:00,
2013-06-02 09:01:00,54.0,32.0,29.92,SE,136,0.0,2.0,43,0.00,,,0.00,,2013-06-02 15:01:00,
2013-06-02 09:11:00,54.0,32.0,29.92,SE,136,0.0,2.0,43,0.00,,,0.00,,2013-06-02 15:11:00,
2013-06-02 09:21:00,54.0,32.0,29.89,SSE,165,0.0,2.0,43,0.00,,,0.00,,2013-06-02 15:21:00,
2013-06-02 09:32:00,57.0,32.0,29.88,SE,142,1.0,3.0,39,0.00,,,0.00,,2013-06-02 15:32:00,
2013-06-02 09:43:00,60.0,30.0,29.85,SE,130,0.0,3.0,32,0.00,,,0.00,,2013-06-02 15:43:00,
2013-06-02 09:53:00,60.0,30.0,29.85,SE,130,0.0,3.0,32,0.00,,,0.00,,2013-06-02 15:53:00,
2013-06-02 10:03:00,63.0,31.0,29.83,NE,49,4.0,8.0,30,0.00,,,0.00,,2013-06-02 16:03:00,
2013-06-02 10:13:00,63.0,31.0,29.83,NE,49,4.0,8.0,30,0.00,,,0.00,,2013-06-02 16:13:00,
2013-06-02 10:23:00,65.0,29.0,29.81,NE,55,2.0,7.0,26,0.00,,,0.00,,2013-06-02 16:23:00,
2013-06-02 10:33:00,65.0,27.0,29.78,SE,127,1.0,5.0,24,0.00,,,0.00,,2013-06-02 16:33:00,
2013-06-02 10:42:00,65.0,27.0,29.78,SE,127,1.0,5.0,24,0.00,,,0.00,,2013-06-02 16:42:00,
2013-06-02 10:52:00,68.0,30.0,29.76,ENE,62,5.0,10.0,24,0.00,,,0.00,,2013-06-02 16:52:00,
2013-06-02 11:02:00,68.0,20.0,29.75,SW,216,9.0,16.0,16,0.00,,,0.00,,2013-06-02 17:02:00,
2013-06-02 11:12:00,68.0,20.0,29.75,SW,216,9.0,16.0,16,0.00,,,0.00,,2013-06-02 17:12:00,
2013-06-02 11:22:00,68.0,23.0,29.75,SW,227,12.0,17.0,18,0.00,,,0.00,,2013-06-02 17:22:00,
2013-06-02 11:32:00,68.0,24.0,29.75,SSE,159,12.0,20.0,19,0.00,,,0.00,,2013-06-02 17:32:00,
2013-06-02 11:42:00,69.0,25.0,29.78,South,179,10.0,18.0,19,0.00,,,0.00,,2013-06-02 17:42:00,
2013-06-02 11:52:00,69.0,25.0,29.78,South,179,10.0,18.0,19,0.00,,,0.00,,2013-06-02 17:52:00,
2013-06-02 12:01:00,70.0,28.0,29.75,WSW,237,8.0,16.0,21,0.00,,,0.00,,2013-06-02 18:01:00,
2013-06-02 12:11:00,70.0,28.0,29.75,WSW,237,8.0,16.0,21,0.00,,,0.00,,2013-06-02 18:11:00,
2013-06-02 12:21:00,70.0,26.0,29.75,SSW,197,12.0,20.0,19,0.00,,,0.00,,2013-06-02 18:21:00,
2013-06-02 12:32:00,71.0,27.0,29.75,West,261,12.0,18.0,19,0.00,,,0.00,,2013-06-02 18:32:00,
2013-06-02 12:42:00,71.0,24.0,29.77,SSW,201,10.0,18.0,17,0.00,,,0.00,,2013-06-02 18:42:00,
2013-06-02 12:52:00,71.0,24.0,29.77,SSW,201,10.0,18.0,17,0.00,,,0.00,,2013-06-02 18:52:00,
2013-06-02 13:01:00,72.0,27.0,29.76,SE,128,5.0,16.0,19,0.00,,,0.00,,2013-06-02 19:01:00,
2013-06-02 13:11:00,72.0,27.0,29.76,SE,128,5.0,16.0,19,0.00,,,0.00,,2013-06-02 19:11:00,
2013-06-02 13:21:00,74.0,29.0,29.74,NE,56,9.0,20.0,19,0.00,,,0.00,,2013-06-02 19:21:00,
2013-06-02 13:32:00,72.0,31.0,29.74,NE,47,12.0,17.0,22,0.00,,,0.00,,2013-06-02 19:32:00,
2013-06-02 13:42:00,72.0,31.0,29.74,NE,47,12.0,17.0,22,0.00,,,0.00,,2013-06-02 19:42:00,
2013-06-02 13:52:00,71.0,29.0,29.77,East,94,5.0,14.0,21,0.00,,,0.00,,2013-06-02 19:52:00,
2013-06-02 14:02:00,72.0,31.0,29.75,East,80,9.0,18.0,22,0.00,,,0.00,,2013-06-02 20:02:00,
2013-06-02 14:11:00,72.0,31.0,29.75,East,80,9.0,18.0,22,0.00,,,0.00,,2013-06-02 20:11:00,
2013-06-02 14:21:00,71.0,30.0,29.75,ENE,71,12.0,20.0,22,0.00,,,0.00,,2013-06-02 20:21:00,
2013-06-02 14:32:00,72.0,32.0,29.76,ENE,63,12.0,18.0,23,0.00,,,0.00,,2013-06-02 20:32:00,
2013-06-02 14:42:00,72.0,32.0,29.76,ENE,63,12.0,18.0,23,0.00,,,0.00,,2013-06-02 20:42:00,
2013-06-02 14:52:00,70.0,33.0,29.77,NE,49,11.0,20.0,25,0.00,,,0.00,,2013-06-02 20:52:00,
2013-06-02 15:01:00,69.0,32.0,29.78,ENE,60,7.0,14.0,25,0.00,,,0.00,,2013-06-02 21:01:00,
2013-06-02 15:11:00,69.0,32.0,29.78,ENE,60,7.0,14.0,25,0.00,,,0.00,,2013-06-02 21:11:00,
2013-06-02 15:21:00,67.0,30.0,29.79,SE,131,9.0,13.0,25,0.00,,,0.00,,2013-06-02 21:21:00,
2013-06-02 15:33:00,69.0,33.0,29.79,NE,38,12.0,13.0,26,0.00,,,0.00,,2013-06-02 21:33:00,
2013-06-02 15:42:00,69.0,33.0,29.79,NE,38,12.0,13.0,26,0.00,,,0.00,,2013-06-02 21:42:00,
2013-06-02 15:53:00,69.0,33.0,29.80,North,2,10.0,14.0,26,0.00,,,0.00,,2013-06-02 21:53:00,
2013-06-02 16:03:00,71.0,36.0,29.77,NNE,21,8.0,14.0,28,0.00,,,0.00,,2013-06-02 22:03:00,
2013-06-02 16:12:00,71.0,36.0,29.77,NNE,21,8.0,14.0,28,0.00,,,0.00,,2013-06-02 22:12:00,
2013-06-02 16:23:00,71.0,34.0,29.76,NNE,21,6.0,12.0,26,0.00,,,0.00,,2013-06-02 22:23:00,
2013-06-02 16:33:00,70.0,34.0,29.76,SE,128,3.0,12.0,26,0.00,,,0.00,,2013-06-02 22:33:00,
2013-06-02 16:42:00,70.0,34.0,29.76,SE,128,3.0,12.0,26,0.00,,,0.00,,2013-06-02 22:42:00,
2013-06-02 16:52:00,69.0,34.0,29.77,ESE,121,3.0,12.0,27,0.00,,,0.00,,2013-06-02 22:52:00,
2013-06-02 17:02:00,69.0,33.0,29.76,SE,128,6.0,12.0,26,0.00,,,0.00,,2013-06-02 23:02:00,
2013-06-02 17:12:00,69.0,33.0,29.76,SE,128,6.0,12.0,26,0.00,,,0.00,,2013-06-02 23:12:00,
2013-06-02 17:22:00,68.0,32.0,29.76,SE,124,5.0,12.0,26,0.00,,,0.00,,2013-06-02 23:22:00,
2013-06-02 17:32:00,68.0,32.0,29.78,SE,128,4.0,8.0,26,0.00,,,0.00,,2013-06-02 23:32:00,
2013-06-02 17:42:00,68.0,32.0,29.78,SE,128,4.0,8.0,26,0.00,,,0.00,,2013-06-02 23:42:00,
2013-06-02 17:52:00,68.0,32.0,29.78,East,98,5.0,5.0,26,0.00,,,0.00,,2013-06-02 23:52:00,
2013-06-02 18:01:00,68.0,32.0,29.78,SE,128,3.0,12.0,26,0.00,,,0.00,,2013-06-03 00:01:00,
2013-06-02 18:11:00,66.0,30.0,29.78,SE,128,5.0,8.0,26,0.00,,,0.00,,2013-06-03 00:11:00,
2013-06-02 18:21:00,66.0,30.0,29.78,SE,128,5.0,8.0,26,0.00,,,0.00,,2013-06-03 00:21:00,
2013-06-02 18:32:00,66.0,30.0,29.76,East,93,6.0,6.0,26,0.00,,,0.00,,2013-06-03 00:32:00,
2013-06-02 18:42:00,66.0,30.0,29.71,ESE,115,5.0,7.0,26,0.00,,,0.00,,2013-06-03 00:42:00,
2013-06-02 18:51:00,66.0,30.0,29.71,ESE,115,5.0,7.0,26,0.00,,,0.00,,2013-06-03 00:51:00,
2013-06-02 19:01:00,66.0,30.0,29.71,ESE,107,3.0,6.0,26,0.00,,,0.00,,2013-06-03 01:01:00,
2013-06-02 19:11:00,66.0,30.0,29.71,ESE,107,3.0,6.0,26,0.00,,,0.00,,2013-06-03 01:11:00,
2013-06-02 19:21:00,66.0,30.0,29.71,North,0,0.0,3.0,26,0.00,,,0.00,,2013-06-03 01:21:00,
2013-06-02 19:32:00,66.0,30.0,29.85,North,0,0.0,0.0,26,0.00,,,0.00,,2013-06-03 01:32:00,
2013-06-02 19:42:00,66.0,30.0,29.85,North,0,0.0,0.0,26,0.00,,,0.00,,2013-06-03 01:42:00,
2013-06-02 19:52:00,66.0,30.0,29.77,North,0,0.0,0.0,26,0.00,,,0.00,,2013-06-03 01:52:00,
2013-06-02 20:02:00,66.0,30.0,29.78,North,0,0.0,0.0,26,0.00,,,0.00,,2013-06-03 02:02:00,
2013-06-02 20:12:00,66.0,30.0,29.78,North,0,0.0,0.0,26,0.00,,,0.00,,2013-06-03 02:12:00,
2013-06-02 20:22:00,66.0,30.0,29.78,North,0,0.0,0.0,26,0.00,,,0.00,,2013-06-03 02:22:00,
2013-06-02 20:32:00,66.0,30.0,29.72,North,0,0.0,0.0,26,0.00,,,0.00,,2013-06-03 02:32:00,
2013-06-02 20:42:00,66.0,30.0,29.72,North,0,0.0,0.0,26,0.00,,,0.00,,2013-06-03 02:42:00,
2013-06-02 20:52:00,66.0,30.0,29.64,North,0,0.0,0.0,26,0.00,,,0.00,,2013-06-03 02:52:00,
2013-06-02 21:02:00,66.0,30.0,29.64,North,0,0.0,0.0,26,0.00,,,0.00,,2013-06-03 03:02:00,
2013-06-02 21:12:00,66.0,30.0,29.64,North,0,0.0,0.0,26,0.00,,,0.00,,2013-06-03 03:12:00,
2013-06-02 21:22:00,66.0,30.0,29.64,North,0,0.0,0.0,26,0.00,,,0.00,,2013-06-03 03:22:00,
2013-06-02 21:33:00,66.0,30.0,29.57,North,0,0.0,0.0,26,0.00,,,0.00,,2013-06-03 03:33:00,
2013-06-02 21:43:00,66.0,30.0,29.57,North,0,0.0,0.0,26,0.00,,,0.00,,2013-06-03 03:43:00,
2013-06-02 21:53:00,66.0,30.0,29.48,North,0,0.0,0.0,26,0.00,,,0.00,,2013-06-03 03:53:00,
2013-06-02 22:03:00,66.0,30.0,29.49,North,0,0.0,0.0,26,0.00,,,0.00,,2013-06-03 04:03:00,
2013-06-02 22:13:00,66.0,30.0,29.49,North,0,0.0,0.0,26,0.00,,,0.00,,2013-06-03 04:13:00,
2013-06-02 22:23:00,66.0,30.0,29.49,North,0,0.0,0.0,26,0.00,,,0.00,,2013-06-03 04:23:00,
2013-06-02 22:33:00,66.0,30.0,29.47,North,0,0.0,0.0,26,0.00,,,0.00,,2013-06-03 04:33:00,
2013-06-02 22:42:00,66.0,30.0,29.47,North,0,0.0,0.0,26,0.00,,,0.00,,2013-06-03 04:42:00,
2013-06-02 22:52:00,66.0,30.0,29.45,North,0,0.0,0.0,26,0.00,,,0.00,,2013-06-03 04:52:00,
2013-06-02 23:02:00,66.0,30.0,29.45,North,0,0.0,0.0,26,0.00,,,0.00,,2013-06-03 05:02:00,
2013-06-02 23:12:00,66.0,30.0,29.44,North,0,0.0,0.0,26,0.00,,,0.00,,2013-06-03 05:12:00,
2013-06-02 23:22:00,66.0,30.0,29.44,North,0,0.0,0.0,26,0.00,,,0.00,,2013-06-03 05:22:00,
2013-06-02 23:32:00,66.0,30.0,29.43,North,0,0.0,0.0,26,0.00,,,0.00,,2013-06-03 05:32:00,
2013-06-02 23:42:00,66.0,30.0,29.43,North,0,0.0,0.0,26,0.00,,,0.00,,2013-06-03 05:42:00,
2013-06-02 23:52:00,66.0,30.0,29.40,WSW,256,0.0,0.0,26,0.00,,,0.00,,2013-06-03 05:52:00,